Time;durP1;ratioP1;P1;durP2;ratioP2;P2;SDS_P1;SDS_P2;PMS_P1;PMS_P2;Temp;Humidity;BMP_temperature;BMP_pressure;BME280_temperature;BME280_humidity;BME280_pressure;Samples;Min_cycle;Max_cycle;Signal;HPM_P1;HPM_P2
2023/01/25 00:01:52;;;;;;;29.00;25.60;;;1.10;99.90;;;;;;5065844;28;20427;-68
2023/01/25 00:04:19;;;;;;;27.30;24.10;;;1.00;99.90;;;;;;5069110;28;20470;-69
2023/01/25 00:06:46;;;;;;;27.35;23.45;;;0.90;99.90;;;;;;5034954;28;20426;-68
2023/01/25 00:09:12;;;;;;;26.67;23.83;;;1.20;99.90;;;;;;5064743;28;20436;-70
2023/01/25 00:11:38;;;;;;;28.15;23.80;;;1.00;99.90;;;;;;5030130;28;20426;-69
2023/01/25 00:14:05;;;;;;;27.83;24.52;;;0.80;99.90;;;;;;5067327;28;20432;-69
2023/01/25 00:16:31;;;;;;;28.40;23.45;;;0.90;99.90;;;;;;5064670;28;20497;-69
2023/01/25 00:18:56;;;;;;;29.08;24.15;;;0.90;99.90;;;;;;5032921;28;20518;-67
2023/01/25 00:21:24;;;;;;;27.25;24.35;;;0.80;99.90;;;;;;5065931;28;20488;-69
2023/01/25 00:23:50;;;;;;;28.77;23.63;;;0.70;99.90;;;;;;5048608;28;20461;-69
2023/01/25 00:26:17;;;;;;;28.13;25.08;;;0.70;99.90;;;;;;5048600;28;20433;-69
2023/01/25 00:28:47;;;;;;;27.88;23.90;;;0.90;99.90;;;;;;5065594;28;20597;-69
2023/01/25 00:31:19;;;;;;;26.48;23.67;;;1.20;99.90;;;;;;5062377;28;20517;-69
2023/01/25 00:33:54;;;;;;;27.63;23.50;;;1.30;99.90;;;;;;5065406;28;20455;-68
2023/01/25 00:36:40;;;;;;;31.05;23.70;;;1.10;99.90;;;;;;5015216;28;20405;-68
2023/01/25 00:39:12;;;;;;;27.13;24.13;;;1.10;99.90;;;;;;5044868;28;20451;-68
2023/01/25 00:41:38;;;;;;;28.77;25.13;;;1.20;99.90;;;;;;5057793;28;20806;-67
2023/01/25 00:44:05;;;;;;;30.00;25.55;;;1.20;99.90;;;;;;5066881;28;20518;-68
2023/01/25 00:46:31;;;;;;;30.45;26.20;;;0.80;99.90;;;;;;5067624;28;20416;-67
2023/01/25 00:48:56;;;;;;;30.55;26.50;;;1.10;99.90;;;;;;5066587;28;20501;-70
2023/01/25 00:51:23;;;;;;;30.55;26.85;;;1.00;99.90;;;;;;5067480;28;20463;-69
2023/01/25 00:53:49;;;;;;;32.30;28.08;;;0.70;99.90;;;;;;5066203;28;20430;-68
2023/01/25 00:56:15;;;;;;;30.92;26.35;;;0.60;99.90;;;;;;5065929;28;20415;-68
2023/01/25 00:58:41;;;;;;;34.05;28.55;;;0.60;99.90;;;;;;5049173;28;20800;-69
2023/01/25 01:01:07;;;;;;;33.50;26.70;;;0.70;99.90;;;;;;5047973;28;20419;-68
2023/01/25 01:03:33;;;;;;;30.70;27.20;;;0.70;99.90;;;;;;5047325;28;20423;-69
2023/01/25 01:06:06;;;;;;;35.70;30.35;;;0.70;99.90;;;;;;5067481;28;20480;-68
2023/01/25 01:08:33;;;;;;;36.65;30.30;;;0.60;99.90;;;;;;5067004;28;20797;-68
2023/01/25 01:11:00;;;;;;;36.65;30.33;;;1.00;99.90;;;;;;5047139;28;20419;-68
2023/01/25 01:13:28;;;;;;;38.58;32.95;;;1.30;99.90;;;;;;5067500;28;20523;-68
2023/01/25 01:15:56;;;;;;;37.85;32.65;;;1.00;99.90;;;;;;5066360;28;20991;-69
2023/01/25 01:18:22;;;;;;;39.67;34.45;;;1.30;99.90;;;;;;5049241;28;20432;-68
2023/01/25 01:20:49;;;;;;;43.22;36.38;;;1.20;99.90;;;;;;5049088;28;20419;-67
2023/01/25 01:23:15;;;;;;;42.38;36.88;;;1.00;99.90;;;;;;5048363;28;21198;-69
2023/01/25 01:25:41;;;;;;;41.40;34.97;;;0.90;99.90;;;;;;5048184;28;20461;-69
2023/01/25 01:28:06;;;;;;;41.73;35.10;;;0.50;99.90;;;;;;5048401;28;20434;-69
2023/01/25 01:30:32;;;;;;;42.53;35.40;;;0.60;99.90;;;;;;5032655;28;20416;-68
2023/01/25 01:32:58;;;;;;;41.97;36.50;;;1.20;99.90;;;;;;5066485;28;20580;-68
2023/01/25 01:35:23;;;;;;;45.00;38.00;;;0.60;99.90;;;;;;5067074;28;20926;-68
2023/01/25 01:37:49;;;;;;;41.33;36.55;;;0.70;99.90;;;;;;5047484;28;20431;-69
2023/01/25 01:40:15;;;;;;;42.22;35.97;;;0.60;99.90;;;;;;5064567;28;20422;-69
2023/01/25 01:43:01;;;;;;;43.20;36.60;;;0.80;99.90;;;;;;5065013;28;20766;-69
2023/01/25 01:45:42;;;;;;;45.97;37.38;;;0.60;99.90;;;;;;5035554;28;20769;-69
2023/01/25 01:48:24;;;;;;;45.60;39.00;;;0.60;99.90;;;;;;5066328;28;20556;-68
2023/01/25 01:50:54;;;;;;;46.53;39.30;;;0.60;99.90;;;;;;5048954;28;20431;-68
2023/01/25 01:53:23;;;;;;;48.30;38.90;;;0.90;99.90;;;;;;5061719;28;20443;-68
2023/01/25 01:55:49;;;;;;;43.63;36.88;;;0.80;99.90;;;;;;5066166;28;20454;-68
2023/01/25 01:58:15;;;;;;;44.70;38.70;;;0.80;99.90;;;;;;5045919;28;20427;-68
2023/01/25 02:00:41;;;;;;;46.80;40.03;;;1.00;99.90;;;;;;5055688;28;20434;-69
2023/01/25 02:03:10;;;;;;;46.80;40.20;;;0.80;99.90;;;;;;5061543;28;20771;-69
2023/01/25 02:06:00;;;;;;;46.03;38.40;;;0.60;99.90;;;;;;5062630;28;20419;-69
2023/01/25 02:08:31;;;;;;;46.65;39.40;;;0.70;99.90;;;;;;5047924;28;25099;-70
2023/01/25 02:10:58;;;;;;;47.42;40.17;;;0.80;99.90;;;;;;5064749;28;20503;-68
2023/01/25 02:13:24;;;;;;;48.97;40.88;;;0.80;99.90;;;;;;5042652;28;20439;-69
2023/01/25 02:15:52;;;;;;;52.37;43.63;;;0.60;99.90;;;;;;5045102;28;20760;-68
2023/01/25 02:18:18;;;;;;;50.22;42.28;;;0.70;99.90;;;;;;5044556;28;20446;-68
2023/01/25 02:20:47;;;;;;;51.00;42.72;;;0.60;99.90;;;;;;5064031;28;20778;-68
2023/01/25 02:23:18;;;;;;;54.15;42.92;;;0.70;99.90;;;;;;5061060;28;20984;-68
2023/01/25 02:25:44;;;;;;;49.22;42.80;;;0.90;99.90;;;;;;5062876;28;20541;-68
2023/01/25 02:28:17;;;;;;;51.70;42.85;;;0.60;99.90;;;;;;5061232;28;20419;-68
2023/01/25 02:30:43;;;;;;;49.35;42.22;;;0.90;99.90;;;;;;5055847;28;20419;-68
2023/01/25 02:33:09;;;;;;;50.65;43.97;;;0.60;99.90;;;;;;5060631;28;20433;-68
2023/01/25 02:35:40;;;;;;;49.03;41.15;;;1.00;99.90;;;;;;5063169;28;20423;-70
2023/01/25 02:38:07;;;;;;;54.60;43.63;;;1.00;99.90;;;;;;5063738;28;20452;-69
2023/01/25 02:40:41;;;;;;;54.15;45.33;;;0.80;99.90;;;;;;5065480;28;20426;-68
2023/01/25 02:43:07;;;;;;;52.95;44.80;;;0.90;99.90;;;;;;5047699;28;20432;-68
2023/01/25 02:45:36;;;;;;;53.58;44.67;;;2.10;99.90;;;;;;5047521;28;20518;-67
2023/01/25 02:48:01;;;;;;;55.03;46.00;;;0.60;99.90;;;;;;5065004;28;20511;-67
2023/01/25 02:50:27;;;;;;;56.40;46.87;;;0.90;99.90;;;;;;5066424;28;20450;-68
2023/01/25 02:52:52;;;;;;;52.60;45.17;;;0.80;99.90;;;;;;5066129;28;20925;-68
2023/01/25 02:55:18;;;;;;;52.50;45.00;;;0.70;99.90;;;;;;5068850;28;20415;-68
2023/01/25 02:57:44;;;;;;;49.47;42.90;;;0.70;99.90;;;;;;5067653;28;20534;-68
2023/01/25 03:00:10;;;;;;;50.00;41.27;;;1.00;99.90;;;;;;5068315;28;20518;-68
2023/01/25 03:02:36;;;;;;;50.10;43.03;;;0.90;99.90;;;;;;5044784;28;20439;-69
2023/01/25 03:05:01;;;;;;;49.50;40.73;;;0.60;99.90;;;;;;5052312;28;20431;-68
2023/01/25 03:07:27;;;;;;;52.23;44.47;;;0.80;99.90;;;;;;5052682;28;20422;-68
2023/01/25 03:09:53;;;;;;;53.20;44.90;;;0.90;99.90;;;;;;5068313;28;21024;-68
2023/01/25 03:12:19;;;;;;;50.00;41.67;;;0.50;99.90;;;;;;5068690;28;20419;-68
2023/01/25 03:14:44;;;;;;;51.35;43.28;;;0.70;99.90;;;;;;5068020;28;20840;-68
2023/01/25 03:17:10;;;;;;;49.97;41.88;;;0.60;99.90;;;;;;5068027;28;20432;-68
2023/01/25 03:19:36;;;;;;;49.88;41.88;;;1.40;99.90;;;;;;5035020;28;20778;-68
2023/01/25 03:22:02;;;;;;;49.50;41.63;;;0.50;99.90;;;;;;5050572;28;20924;-68
2023/01/25 03:24:27;;;;;;;49.93;42.20;;;0.60;99.90;;;;;;5068554;28;20747;-70
2023/01/25 03:27:16;;;;;;;50.17;41.75;;;0.80;99.90;;;;;;5050203;28;20608;-68
2023/01/25 03:29:41;;;;;;;48.17;40.08;;;0.90;99.90;;;;;;5068564;28;20418;-69
2023/01/25 03:32:07;;;;;;;48.65;41.13;;;0.60;99.90;;;;;;5050554;28;20427;-68
2023/01/25 03:34:33;;;;;;;51.25;41.58;;;0.60;99.90;;;;;;5068596;28;20440;-68
2023/01/25 03:36:59;;;;;;;52.03;41.70;;;0.30;99.90;;;;;;5069170;28;20552;-68
2023/01/25 03:39:24;;;;;;;51.57;43.03;;;0.40;99.90;;;;;;5066686;28;20431;-69
2023/01/25 03:41:50;;;;;;;52.57;42.30;;;0.40;99.90;;;;;;5049150;28;20424;-68
2023/01/25 03:44:16;;;;;;;51.80;42.97;;;0.40;99.90;;;;;;5067856;28;20928;-69
2023/01/25 03:46:41;;;;;;;53.58;42.70;;;0.70;99.90;;;;;;5067803;28;20844;-68
2023/01/25 03:49:08;;;;;;;53.20;43.40;;;0.60;99.90;;;;;;5050852;28;20502;-68
2023/01/25 03:51:34;;;;;;;52.95;44.70;;;0.80;99.90;;;;;;5051457;28;20427;-69
2023/01/25 03:54:00;;;;;;;49.97;43.50;;;0.70;99.90;;;;;;5050439;28;20506;-68
2023/01/25 03:56:25;;;;;;;51.45;42.85;;;0.40;99.90;;;;;;5049521;28;20526;-68
2023/01/25 03:58:51;;;;;;;51.83;43.57;;;0.70;99.90;;;;;;5067717;28;20493;-70
2023/01/25 04:01:17;;;;;;;49.83;41.57;;;0.30;99.90;;;;;;5051360;28;20820;-68
2023/01/25 04:03:43;;;;;;;53.15;44.33;;;0.40;99.90;;;;;;5048456;28;20434;-68
2023/01/25 04:06:08;;;;;;;54.35;45.70;;;0.60;99.90;;;;;;5069030;28;20419;-68
2023/01/25 04:08:35;;;;;;;53.10;45.47;;;2.00;99.90;;;;;;5050643;28;20431;-69
2023/01/25 04:11:05;;;;;;;54.60;45.83;;;0.50;99.90;;;;;;5050085;28;20443;-67
2023/01/25 04:13:33;;;;;;;53.95;44.45;;;0.50;99.90;;;;;;5065104;28;20415;-68
2023/01/25 04:15:59;;;;;;;57.92;46.60;;;0.30;99.90;;;;;;5065911;28;20447;-68
2023/01/25 04:18:25;;;;;;;55.17;46.40;;;0.60;99.90;;;;;;5066248;28;20455;-68
2023/01/25 04:20:55;;;;;;;54.40;44.80;;;0.40;99.90;;;;;;5068397;28;20495;-69
2023/01/25 04:23:22;;;;;;;54.33;43.90;;;0.60;99.90;;;;;;5067729;28;20435;-69
2023/01/25 04:25:56;;;;;;;52.85;44.03;;;0.20;99.90;;;;;;5048255;28;20422;-67
2023/01/25 04:28:22;;;;;;;54.87;44.57;;;0.10;99.90;;;;;;5044762;28;20436;-69
2023/01/25 04:30:48;;;;;;;53.72;44.33;;;0.40;99.90;;;;;;5044890;28;20427;-68
2023/01/25 04:33:14;;;;;;;53.47;45.97;;;0.40;99.90;;;;;;5065963;28;20484;-70
2023/01/25 04:35:40;;;;;;;50.10;42.67;;;0.20;99.90;;;;;;5067216;28;20442;-68
2023/01/25 04:38:06;;;;;;;53.90;44.83;;;0.30;99.90;;;;;;5048741;28;20432;-68
2023/01/25 04:40:31;;;;;;;53.17;43.63;;;0.10;99.90;;;;;;5061065;28;20921;-68
2023/01/25 04:42:57;;;;;;;52.87;43.83;;;0.30;99.90;;;;;;5063434;28;20472;-68
2023/01/25 04:45:27;;;;;;;52.10;42.03;;;0.40;99.90;;;;;;5050224;28;20896;-68
2023/01/25 04:48:00;;;;;;;50.75;42.20;;;0.10;99.90;;;;;;5067412;28;20439;-68
2023/01/25 04:50:26;;;;;;;52.20;43.60;;;0.00;99.90;;;;;;5067022;28;20493;-69
2023/01/25 04:52:52;;;;;;;47.85;40.53;;;0.10;99.90;;;;;;5064404;28;20436;-67
2023/01/25 04:55:19;;;;;;;49.23;41.53;;;0.20;99.90;;;;;;5043896;28;20920;-68
2023/01/25 04:57:47;;;;;;;51.15;43.33;;;0.40;99.90;;;;;;5040376;28;20421;-68
2023/01/25 05:00:13;;;;;;;49.45;40.67;;;0.30;99.90;;;;;;5067348;28;20825;-68
2023/01/25 05:02:39;;;;;;;49.30;41.22;;;0.50;99.90;;;;;;5066443;28;20420;-68
2023/01/25 05:05:05;;;;;;;48.40;41.63;;;0.10;99.90;;;;;;5061846;28;20422;-68
2023/01/25 05:07:30;;;;;;;50.10;41.95;;;0.20;99.90;;;;;;5068616;28;20423;-68
2023/01/25 05:09:56;;;;;;;48.50;40.70;;;0.70;99.90;;;;;;5048136;28;20415;-68
2023/01/25 05:12:22;;;;;;;48.07;40.60;;;0.30;99.90;;;;;;5064513;28;20837;-67
2023/01/25 05:14:48;;;;;;;46.37;39.93;;;0.10;99.90;;;;;;5047125;28;20632;-67
2023/01/25 05:17:13;;;;;;;47.40;39.37;;;0.20;99.90;;;;;;5067262;28;20506;-67
2023/01/25 05:19:39;;;;;;;48.90;40.90;;;0.10;99.90;;;;;;5049286;28;20815;-68
2023/01/25 05:22:06;;;;;;;46.83;39.55;;;0.10;99.90;;;;;;5048730;28;20799;-68
2023/01/25 05:24:34;;;;;;;43.80;37.40;;;0.20;99.90;;;;;;5032002;28;20485;-68
2023/01/25 05:27:02;;;;;;;45.28;38.72;;;0.30;99.90;;;;;;5067530;28;20474;-68
2023/01/25 05:29:30;;;;;;;41.38;36.10;;;0.30;99.90;;;;;;5066095;28;20419;-68
2023/01/25 05:31:57;;;;;;;42.95;37.00;;;0.20;99.90;;;;;;5066007;28;20515;-68
2023/01/25 05:34:22;;;;;;;42.95;36.92;;;-0.20;99.90;;;;;;5065877;28;20436;-68
2023/01/25 05:36:48;;;;;;;40.47;35.05;;;0.10;99.90;;;;;;5066032;28;20499;-69
2023/01/25 05:39:14;;;;;;;40.20;35.80;;;1.50;99.90;;;;;;5029545;28;20797;-68
2023/01/25 05:41:40;;;;;;;40.53;35.77;;;0.10;99.90;;;;;;5048840;28;20427;-68
2023/01/25 05:44:05;;;;;;;38.87;34.43;;;0.00;99.90;;;;;;5064620;28;20450;-66
2023/01/25 05:46:31;;;;;;;40.30;35.63;;;-0.30;99.90;;;;;;5062493;28;20422;-68
2023/01/25 05:48:57;;;;;;;39.30;35.17;;;-0.10;99.90;;;;;;5066684;28;20468;-69
2023/01/25 05:51:22;;;;;;;38.80;34.60;;;-0.20;99.90;;;;;;5045078;28;20473;-68
2023/01/25 05:53:48;;;;;;;37.70;33.60;;;0.10;99.90;;;;;;5048884;28;20574;-69
2023/01/25 05:56:14;;;;;;;38.70;34.50;;;0.00;99.90;;;;;;5048072;28;20424;-68
2023/01/25 05:58:39;;;;;;;39.88;35.55;;;0.10;99.90;;;;;;5066262;28;20481;-68
2023/01/25 06:01:06;;;;;;;41.10;35.03;;;0.00;99.90;;;;;;5065618;28;20459;-68
2023/01/25 06:03:33;;;;;;;39.63;35.30;;;-0.20;99.90;;;;;;5066310;28;20467;-68
2023/01/25 06:06:01;;;;;;;39.53;35.33;;;-0.30;99.90;;;;;;5044585;28;20417;-69
2023/01/25 06:08:30;;;;;;;42.38;35.85;;;0.10;99.90;;;;;;5067297;28;20444;-68
2023/01/25 06:10:56;;;;;;;40.95;34.90;;;0.10;99.90;;;;;;5065375;28;20433;-69
2023/01/25 06:13:23;;;;;;;41.40;35.55;;;0.90;99.90;;;;;;5064610;28;20821;-69
2023/01/25 06:15:55;;;;;;;40.58;35.88;;;0.20;99.90;;;;;;5061976;28;20415;-69
2023/01/25 06:18:23;;;;;;;41.80;36.15;;;0.00;99.90;;;;;;5045607;28;20428;-68
2023/01/25 06:20:49;;;;;;;42.42;36.97;;;0.10;99.90;;;;;;5065088;28;20453;-69
2023/01/25 06:23:15;;;;;;;42.50;36.42;;;0.00;99.90;;;;;;5059008;28;20419;-68
2023/01/25 06:25:41;;;;;;;40.45;36.00;;;-0.30;99.90;;;;;;5046398;28;20438;-69
2023/01/25 06:28:07;;;;;;;42.10;37.47;;;0.10;99.90;;;;;;5065877;28;20423;-68
2023/01/25 06:30:33;;;;;;;44.90;38.67;;;-0.10;99.90;;;;;;5047985;28;20431;-70
2023/01/25 06:32:59;;;;;;;45.25;39.55;;;0.10;99.90;;;;;;5065925;28;20507;-70
2023/01/25 06:35:25;;;;;;;43.93;37.30;;;0.10;99.90;;;;;;5061273;28;20542;-68
2023/01/25 06:37:55;;;;;;;44.53;38.08;;;-0.10;99.90;;;;;;5065930;28;20404;-68
2023/01/25 06:40:21;;;;;;;44.05;36.03;;;0.00;99.90;;;;;;5047071;28;20438;-68
2023/01/25 06:42:46;;;;;;;44.33;39.45;;;-0.20;99.90;;;;;;5066305;28;20467;-69
2023/01/25 06:45:12;;;;;;;44.33;38.05;;;0.00;99.90;;;;;;5064411;28;20435;-68
2023/01/25 06:47:38;;;;;;;42.07;36.07;;;-0.10;99.90;;;;;;5047541;28;20427;-68
2023/01/25 06:50:05;;;;;;;40.33;35.83;;;-0.50;99.90;;;;;;5065639;28;20429;-69
2023/01/25 06:52:30;;;;;;;45.38;38.65;;;-0.30;99.90;;;;;;5064036;28;20419;-68
2023/01/25 06:54:56;;;;;;;45.33;39.47;;;-0.20;99.90;;;;;;5042953;28;20924;-69
2023/01/25 06:57:22;;;;;;;43.72;37.70;;;-0.40;99.90;;;;;;5047633;28;20506;-68
2023/01/25 06:59:48;;;;;;;46.25;38.75;;;-0.10;99.90;;;;;;5063904;28;20514;-68
2023/01/25 07:02:14;;;;;;;41.80;36.83;;;-0.10;99.90;;;;;;5064487;28;20536;-69
2023/01/25 07:04:41;;;;;;;44.22;37.78;;;-0.40;99.90;;;;;;5047951;28;20427;-69
2023/01/25 07:07:08;;;;;;;46.08;40.20;;;-0.20;99.90;;;;;;5065662;28;20445;-68
2023/01/25 07:09:34;;;;;;;45.47;38.35;;;-0.10;99.90;;;;;;5046290;28;20440;-70
2023/01/25 07:12:01;;;;;;;48.22;41.00;;;-0.10;99.90;;;;;;5047766;28;20929;-68
2023/01/25 07:14:27;;;;;;;47.63;39.70;;;-0.30;99.90;;;;;;5065114;28;20464;-68
2023/01/25 07:16:52;;;;;;;48.55;41.20;;;-0.10;99.90;;;;;;5065354;28;20427;-69
2023/01/25 07:19:18;;;;;;;49.17;40.90;;;0.00;99.90;;;;;;5044002;28;20782;-68
2023/01/25 07:21:45;;;;;;;49.07;41.63;;;0.40;99.90;;;;;;5062040;28;20770;-69
2023/01/25 07:24:14;;;;;;;51.22;43.20;;;-0.40;99.90;;;;;;5060049;28;20409;-69
2023/01/25 07:26:40;;;;;;;51.17;42.88;;;0.00;99.90;;;;;;5032026;28;20842;-70
2023/01/25 07:29:08;;;;;;;49.20;41.65;;;0.00;99.90;;;;;;5047800;28;20407;-69
2023/01/25 07:31:34;;;;;;;47.53;40.10;;;0.10;99.90;;;;;;5048538;28;20423;-69
2023/01/25 07:34:00;;;;;;;51.00;40.47;;;0.10;99.90;;;;;;5030665;28;20431;-69
2023/01/25 07:36:25;;;;;;;48.55;39.97;;;-0.30;99.90;;;;;;5048313;28;20431;-68
2023/01/25 07:38:56;;;;;;;47.15;39.63;;;-0.30;99.90;;;;;;5049392;28;20430;-69
2023/01/25 07:41:23;;;;;;;51.33;42.63;;;0.10;99.90;;;;;;5070711;28;20448;-69
2023/01/25 07:43:49;;;;;;;52.00;42.83;;;0.00;99.90;;;;;;5069281;28;20931;-68
2023/01/25 07:46:16;;;;;;;52.10;41.42;;;0.10;99.90;;;;;;5050255;28;20451;-68
2023/01/25 07:48:51;;;;;;;49.30;38.83;;;-0.30;99.90;;;;;;5070048;28;20419;-68
2023/01/25 07:51:21;;;;;;;48.70;40.30;;;-0.40;99.90;;;;;;5062749;28;25120;-68
2023/01/25 07:53:52;;;;;;;51.05;40.03;;;-0.40;99.90;;;;;;5049807;28;20511;-68
2023/01/25 07:56:20;;;;;;;50.53;41.30;;;0.00;99.90;;;;;;5035082;28;20469;-67
2023/01/25 07:58:46;;;;;;;52.00;40.67;;;-0.30;99.90;;;;;;5068232;28;20440;-68
2023/01/25 08:01:19;;;;;;;51.05;41.15;;;-0.20;99.90;;;;;;5050860;28;20796;-68
2023/01/25 08:03:46;;;;;;;53.63;42.30;;;0.10;99.90;;;;;;5042050;28;20445;-69
2023/01/25 08:06:12;;;;;;;55.47;44.80;;;-0.10;99.90;;;;;;5048462;28;20956;-68
2023/01/25 08:08:41;;;;;;;54.25;42.45;;;0.00;99.90;;;;;;5041638;28;20413;-70
2023/01/25 08:11:28;;;;;;;55.53;42.28;;;-0.40;99.90;;;;;;5051479;28;20469;-69
2023/01/25 08:13:55;;;;;;;55.63;45.20;;;-0.20;99.90;;;;;;5065524;28;20454;-69
2023/01/25 08:16:23;;;;;;;53.80;42.83;;;-0.20;99.90;;;;;;5051126;28;20428;-69
2023/01/25 08:18:51;;;;;;;54.35;43.25;;;0.10;99.90;;;;;;5034001;28;20446;-70
2023/01/25 08:21:17;;;;;;;54.63;44.10;;;0.20;99.90;;;;;;5069373;28;20463;-68
2023/01/25 08:23:43;;;;;;;58.10;45.72;;;0.00;99.90;;;;;;5068050;28;20516;-68
2023/01/25 08:26:11;;;;;;;54.22;44.03;;;-0.10;99.90;;;;;;5051311;28;20454;-68
2023/01/25 08:28:37;;;;;;;55.72;44.63;;;-0.20;99.90;;;;;;5048568;28;20465;-68
2023/01/25 08:31:14;;;;;;;55.97;43.95;;;0.30;99.90;;;;;;5047792;28;20424;-69
2023/01/25 08:33:43;;;;;;;53.97;43.80;;;0.40;99.90;;;;;;5050887;28;20447;-70
2023/01/25 08:36:09;;;;;;;52.88;43.55;;;0.00;99.90;;;;;;5068190;28;20437;-67
2023/01/25 08:38:36;;;;;;;52.25;41.15;;;-0.10;99.90;;;;;;5042689;28;20759;-69
2023/01/25 08:41:06;;;;;;;50.97;40.35;;;0.30;99.90;;;;;;5060908;28;20422;-68
2023/01/25 08:43:32;;;;;;;51.95;41.00;;;0.20;99.90;;;;;;5067176;28;20417;-68
2023/01/25 08:45:58;;;;;;;53.05;41.17;;;0.10;99.90;;;;;;5066818;28;20494;-67
2023/01/25 08:48:24;;;;;;;51.70;41.33;;;0.40;99.90;;;;;;5065268;28;20565;-68
2023/01/25 08:50:50;;;;;;;56.55;44.13;;;0.20;99.90;;;;;;5022119;28;20429;-68
2023/01/25 08:53:15;;;;;;;56.40;43.28;;;0.00;99.90;;;;;;5063435;28;20431;-69
2023/01/25 08:55:41;;;;;;;53.67;42.15;;;0.40;99.90;;;;;;5067531;28;20469;-66
2023/01/25 08:58:15;;;;;;;56.40;43.08;;;0.00;99.90;;;;;;5047616;28;20518;-68
2023/01/25 09:00:42;;;;;;;55.22;43.70;;;0.10;99.90;;;;;;5028267;28;20907;-67
2023/01/25 09:03:09;;;;;;;54.67;41.42;;;0.50;99.90;;;;;;5048432;28;20476;-68
2023/01/25 09:05:36;;;;;;;56.80;42.43;;;0.10;99.90;;;;;;5049658;28;20432;-69
2023/01/25 09:08:03;;;;;;;57.38;42.92;;;0.10;99.90;;;;;;5066626;28;21006;-68
2023/01/25 09:10:29;;;;;;;59.45;44.95;;;0.10;99.90;;;;;;5048298;28;20908;-68
2023/01/25 09:12:55;;;;;;;57.45;43.17;;;0.00;99.90;;;;;;5066648;28;20434;-68
2023/01/25 09:15:21;;;;;;;53.33;41.00;;;0.20;99.90;;;;;;5065916;28;20984;-68
2023/01/25 09:17:50;;;;;;;54.45;40.40;;;0.40;99.90;;;;;;5068088;28;20411;-68
2023/01/25 09:20:16;;;;;;;52.90;40.63;;;0.50;99.90;;;;;;5049941;28;20970;-70
2023/01/25 09:22:42;;;;;;;51.13;38.33;;;0.20;99.90;;;;;;5067968;28;20408;-69
2023/01/25 09:25:08;;;;;;;55.58;40.30;;;0.00;99.90;;;;;;5048520;28;20789;-69
2023/01/25 09:27:33;;;;;;;51.33;39.03;;;0.30;99.90;;;;;;5065950;28;20419;-69
2023/01/25 09:29:59;;;;;;;52.97;37.97;;;0.30;99.90;;;;;;5067821;28;20406;-68
2023/01/25 09:32:25;;;;;;;54.77;39.73;;;0.30;99.90;;;;;;5049726;28;20456;-68
2023/01/25 09:34:51;;;;;;;52.05;37.75;;;0.20;99.90;;;;;;5049221;28;20443;-67
2023/01/25 09:37:16;;;;;;;52.47;37.90;;;0.20;99.90;;;;;;5047262;28;20822;-67
2023/01/25 09:39:42;;;;;;;53.42;39.50;;;0.80;99.90;;;;;;5047151;28;20500;-67
2023/01/25 09:42:13;;;;;;;57.73;41.03;;;0.60;99.90;;;;;;5066939;28;20407;-67
2023/01/25 09:44:54;;;;;;;56.42;40.33;;;0.60;99.90;;;;;;5048908;28;20409;-67
2023/01/25 09:47:58;;;;;;;54.95;39.22;;;0.10;99.90;;;;;;5067106;28;20461;-67
2023/01/25 09:50:32;;;;;;;54.65;39.70;;;0.50;99.90;;;;;;5029498;28;25122;-68
2023/01/25 09:53:32;;;;;;;51.35;38.70;;;0.50;99.90;;;;;;5040703;28;25161;-67
2023/01/25 09:56:03;;;;;;;55.45;38.72;;;0.10;99.90;;;;;;5032723;28;25104;-67
2023/01/25 09:58:33;;;;;;;54.30;39.35;;;0.40;99.90;;;;;;5066981;28;20416;-69
2023/01/25 10:01:10;;;;;;;52.67;37.67;;;0.40;99.90;;;;;;5067159;28;20399;-69
2023/01/25 10:03:44;;;;;;;55.53;38.63;;;0.50;99.90;;;;;;5047568;28;20654;-68
2023/01/25 10:06:13;;;;;;;53.95;39.08;;;0.10;99.90;;;;;;5057035;28;20438;-69
2023/01/25 10:08:54;;;;;;;49.90;34.67;;;0.50;99.90;;;;;;5059058;28;20425;-68
2023/01/25 10:11:28;;;;;;;47.58;32.80;;;0.60;99.90;;;;;;5048871;28;20414;-69
2023/01/25 10:13:56;;;;;;;49.10;34.60;;;0.50;99.90;;;;;;5047414;28;20522;-68
2023/01/25 10:16:50;;;;;;;51.88;36.42;;;0.80;99.90;;;;;;5066240;28;20789;-68
2023/01/25 10:19:39;;;;;;;52.80;37.13;;;0.80;99.90;;;;;;5013213;28;20421;-69
2023/01/25 10:22:15;;;;;;;54.38;39.60;;;1.00;99.90;;;;;;5049300;28;20455;-69
2023/01/25 10:25:12;;;;;;;56.72;39.22;;;0.90;99.90;;;;;;5048241;28;20396;-69
2023/01/25 10:27:51;;;;;;;58.22;38.40;;;0.50;99.90;;;;;;5057623;28;20515;-69
2023/01/25 10:30:38;;;;;;;55.55;38.30;;;0.70;99.90;;;;;;5065669;28;20444;-69
2023/01/25 10:33:14;;;;;;;57.22;37.88;;;0.70;99.90;;;;;;5040760;28;20455;-70
2023/01/25 10:35:44;;;;;;;55.90;38.03;;;0.90;99.90;;;;;;5046728;28;20485;-70
2023/01/25 10:38:41;;;;;;;58.75;40.05;;;1.00;99.90;;;;;;5047112;28;20412;-69
2023/01/25 10:41:25;;;;;;;60.30;39.60;;;1.20;99.90;;;;;;5038483;28;20417;-69
2023/01/25 10:44:20;;;;;;;57.57;36.17;;;0.70;99.90;;;;;;5066354;28;20474;-68
2023/01/25 10:46:40;;;;;;;57.17;35.65;;;1.20;99.90;;;;;;5047809;28;20438;-69
2023/01/25 10:49:28;;;;;;;48.53;31.55;;;1.20;99.90;;;;;;5060596;28;20475;-69
2023/01/25 10:51:54;;;;;;;52.75;34.67;;;1.10;99.90;;;;;;5047238;28;20431;-69
2023/01/25 10:54:22;;;;;;;55.15;35.85;;;1.00;99.90;;;;;;5061580;28;20493;-68
2023/01/25 10:56:48;;;;;;;54.35;34.42;;;1.00;99.90;;;;;;5055225;28;20797;-68
2023/01/25 10:59:22;;;;;;;57.45;37.15;;;1.10;99.90;;;;;;5050928;28;20971;-68
2023/01/25 11:01:47;;;;;;;52.25;34.28;;;0.90;99.90;;;;;;5044421;28;20460;-68
2023/01/25 11:04:29;;;;;;;60.17;37.87;;;1.20;99.90;;;;;;5065453;28;20423;-68
2023/01/25 11:06:55;;;;;;;57.13;36.47;;;1.50;99.90;;;;;;5045117;28;20411;-69
2023/01/25 11:09:20;;;;;;;51.37;35.20;;;1.30;99.90;;;;;;5044252;28;20414;-70
2023/01/25 11:12:01;;;;;;;54.27;34.30;;;1.00;99.90;;;;;;5029005;28;20425;-69
2023/01/25 11:14:29;;;;;;;53.35;34.35;;;1.10;99.90;;;;;;5050103;28;20458;-68
2023/01/25 11:16:57;;;;;;;59.00;36.25;;;1.80;99.90;;;;;;5050831;28;20402;-67
2023/01/25 11:19:36;;;;;;;54.65;33.70;;;1.10;99.90;;;;;;5039300;28;20419;-69
2023/01/25 11:22:24;;;;;;;54.95;35.63;;;1.10;99.90;;;;;;5030736;28;20470;-69
2023/01/25 11:24:50;;;;;;;54.95;35.25;;;1.30;99.90;;;;;;5039609;28;20425;-69
2023/01/25 11:27:26;;;;;;;57.25;37.78;;;1.50;99.90;;;;;;5036735;28;20500;-69
2023/01/25 11:30:04;;;;;;;58.70;37.22;;;1.10;99.90;;;;;;5041090;28;20424;-69
2023/01/25 11:32:30;;;;;;;58.33;36.40;;;2.30;99.90;;;;;;5042252;28;20486;-68
2023/01/25 11:34:57;;;;;;;61.90;38.53;;;1.00;99.90;;;;;;5046556;28;20452;-69
2023/01/25 11:37:48;;;;;;;60.77;37.20;;;1.00;99.90;;;;;;5047964;28;20453;-69
2023/01/25 11:40:22;;;;;;;61.10;38.22;;;1.10;99.90;;;;;;5046595;28;20444;-69
2023/01/25 11:43:00;;;;;;;64.72;38.63;;;1.50;99.90;;;;;;5049125;28;20446;-69
2023/01/25 11:45:47;;;;;;;63.35;38.78;;;1.60;99.90;;;;;;5031126;28;20433;-69
2023/01/25 11:48:21;;;;;;;65.33;41.83;;;1.20;99.90;;;;;;5047229;28;22647;-70
2023/01/25 11:51:05;;;;;;;64.57;37.30;;;1.10;99.90;;;;;;5046865;28;20421;-69
2023/01/25 11:54:04;;;;;;;69.65;41.28;;;1.20;99.90;;;;;;5047588;28;20425;-69
2023/01/25 11:56:39;;;;;;;67.78;40.15;;;1.50;99.90;;;;;;5045208;28;20487;-67
2023/01/25 11:59:25;;;;;;;62.57;37.90;;;1.60;99.90;;;;;;5047004;28;20955;-72
2023/01/25 12:02:00;;;;;;;68.93;40.10;;;1.50;99.90;;;;;;5045288;28;20426;-69
2023/01/25 12:04:49;;;;;;;66.22;39.42;;;1.10;99.90;;;;;;5044480;28;20436;-71
2023/01/25 12:07:40;;;;;;;66.05;40.38;;;1.40;99.90;;;;;;5055660;28;20548;-71
2023/01/25 12:10:18;;;;;;;64.00;38.17;;;1.40;99.90;;;;;;5066378;28;20430;-69
2023/01/25 12:12:52;;;;;;;67.33;39.83;;;1.40;99.90;;;;;;5064228;28;20423;-70
2023/01/25 12:15:29;;;;;;;68.05;38.40;;;1.50;99.90;;;;;;5068721;28;20926;-69
2023/01/25 12:18:01;;;;;;;67.30;39.72;;;1.50;99.90;;;;;;5050886;28;20758;-72
2023/01/25 12:20:38;;;;;;;63.15;38.67;;;1.50;99.90;;;;;;5049445;28;20435;-70
2023/01/25 12:23:07;;;;;;;64.45;38.50;;;1.60;99.90;;;;;;5065792;28;20427;-70
2023/01/25 12:25:51;;;;;;;67.95;39.63;;;1.60;99.90;;;;;;5069882;28;20412;-70
2023/01/25 12:28:56;;;;;;;59.65;36.58;;;2.40;99.90;;;;;;5049133;28;20535;-69
2023/01/25 12:31:50;;;;;;;65.53;38.17;;;1.50;99.90;;;;;;5011415;28;20978;-71
2023/01/25 12:34:32;;;;;;;66.88;39.88;;;1.50;99.90;;;;;;5062947;28;20449;-68
2023/01/25 12:37:03;;;;;;;66.63;38.47;;;1.60;99.90;;;;;;5057069;28;20409;-69
2023/01/25 12:39:35;;;;;;;64.60;37.28;;;3.40;99.90;;;;;;5060942;28;20427;-70
2023/01/25 12:42:23;;;;;;;67.45;38.38;;;1.50;99.90;;;;;;5067635;28;20787;-68
2023/01/25 12:44:57;;;;;;;64.18;37.75;;;1.50;99.90;;;;;;5051267;28;20777;-69
2023/01/25 12:47:31;;;;;;;66.00;39.35;;;1.60;99.90;;;;;;5065956;28;21039;-69
2023/01/25 12:50:32;;;;;;;63.85;38.28;;;2.00;99.90;;;;;;5034340;28;20424;-69